Time;durP1;ratioP1;P1;durP2;ratioP2;P2;SDS_P1;SDS_P2;PMS_P1;PMS_P2;Temp;Humidity;BMP_temperature;BMP_pressure;BME280_temperature;BME280_humidity;BME280_pressure;Samples;Min_cycle;Max_cycle;Signal;HPM_P1;HPM_P2
2021/09/26 00:00:34;;;;;;;24.17;20.33;;;;;;;;;;2084759;28;20212;-66
2021/09/26 00:01:35;;;;;;;26.13;21.23;;;;;;;;;;2076354;28;20185;-64
2021/09/26 00:02:35;;;;;;;21.98;18.30;;;;;;;;;;2068232;28;21040;-63
2021/09/26 00:03:35;;;;;;;23.05;19.77;;;;;;;;;;2067291;28;20248;-63
2021/09/26 00:04:35;;;;;;;30.05;26.05;;;;;;;;;;2075720;28;20187;-62
2021/09/26 00:05:36;;;;;;;22.88;17.95;;;;;;;;;;2081576;28;20176;-61
2021/09/26 00:06:36;;;;;;;24.00;18.65;;;;;;;;;;2083455;28;20192;-62
2021/09/26 00:07:37;;;;;;;22.55;18.33;;;;;;;;;;2083907;28;20184;-63
2021/09/26 00:08:37;;;;;;;18.50;15.90;;;;;;;;;;2084259;28;20183;-65
2021/09/26 00:09:37;;;;;;;20.40;17.23;;;;;;;;;;2089444;28;20175;-64
2021/09/26 00:10:37;;;;;;;20.15;17.55;;;;;;;;;;2092156;28;20168;-62
2021/09/26 00:11:40;;;;;;;22.15;17.35;;;;;;;;;;2091342;28;20182;-62
2021/09/26 00:12:41;;;;;;;22.23;18.77;;;;;;;;;;2091819;28;20176;-60
2021/09/26 00:13:42;;;;;;;24.88;20.45;;;;;;;;;;2088262;28;20177;-64
2021/09/26 00:14:43;;;;;;;24.35;19.75;;;;;;;;;;2084670;28;20180;-61
2021/09/26 00:15:43;;;;;;;21.00;16.92;;;;;;;;;;2087537;28;20173;-62
2021/09/26 00:16:43;;;;;;;24.15;17.17;;;;;;;;;;2092664;28;20212;-65
2021/09/26 00:17:44;;;;;;;22.92;19.02;;;;;;;;;;2082601;28;20199;-63
2021/09/26 00:18:44;;;;;;;23.95;19.67;;;;;;;;;;2082085;28;20173;-59
2021/09/26 00:19:45;;;;;;;23.10;19.02;;;;;;;;;;2090167;28;20211;-65
2021/09/26 00:20:45;;;;;;;25.58;19.17;;;;;;;;;;2090234;28;20259;-61
2021/09/26 00:21:45;;;;;;;22.05;17.65;;;;;;;;;;2091092;28;20172;-64
2021/09/26 00:22:46;;;;;;;22.10;17.00;;;;;;;;;;2090849;28;20179;-65
2021/09/26 00:23:46;;;;;;;21.73;18.75;;;;;;;;;;2084689;28;20196;-65
2021/09/26 00:24:46;;;;;;;23.77;17.92;;;;;;;;;;2089300;28;20255;-63
2021/09/26 00:25:47;;;;;;;20.40;17.33;;;;;;;;;;2080266;28;20568;-62
2021/09/26 00:26:48;;;;;;;24.77;18.20;;;;;;;;;;2076521;28;20270;-68
2021/09/26 00:27:48;;;;;;;22.42;18.52;;;;;;;;;;2084805;28;20644;-63
2021/09/26 00:28:49;;;;;;;21.42;18.45;;;;;;;;;;2080151;28;20172;-62
2021/09/26 00:29:49;;;;;;;22.00;17.23;;;;;;;;;;2081041;28;20177;-62
2021/09/26 00:30:49;;;;;;;23.10;18.23;;;;;;;;;;2087982;28;20218;-59
2021/09/26 00:31:49;;;;;;;23.27;18.60;;;;;;;;;;2083890;28;20207;-62
2021/09/26 00:32:49;;;;;;;21.48;18.45;;;;;;;;;;2080643;28;20238;-63
2021/09/26 00:33:50;;;;;;;21.05;18.30;;;;;;;;;;2081206;28;20184;-62
2021/09/26 00:34:50;;;;;;;24.63;19.45;;;;;;;;;;2081085;28;20192;-61
2021/09/26 00:35:50;;;;;;;26.73;19.85;;;;;;;;;;2080914;28;20200;-65
2021/09/26 00:36:51;;;;;;;23.70;19.25;;;;;;;;;;2090039;28;20258;-62
2021/09/26 00:37:51;;;;;;;22.70;18.25;;;;;;;;;;2088786;28;20179;-62
2021/09/26 00:38:51;;;;;;;22.08;18.83;;;;;;;;;;2088917;28;20183;-60
2021/09/26 00:39:51;;;;;;;22.40;17.05;;;;;;;;;;2080450;28;20172;-60
2021/09/26 00:40:52;;;;;;;26.30;17.90;;;;;;;;;;2080640;28;20175;-60
2021/09/26 00:41:52;;;;;;;25.38;19.63;;;;;;;;;;2089561;28;20179;-66
2021/09/26 00:42:52;;;;;;;23.60;18.95;;;;;;;;;;2086462;28;20258;-64
2021/09/26 00:43:53;;;;;;;23.40;19.00;;;;;;;;;;2089736;28;20547;-62
2021/09/26 00:44:53;;;;;;;22.15;19.42;;;;;;;;;;2089982;28;20226;-64
2021/09/26 00:45:53;;;;;;;25.90;18.52;;;;;;;;;;2089326;28;20205;-64
2021/09/26 00:46:53;;;;;;;24.20;20.05;;;;;;;;;;2089675;28;20594;-63
2021/09/26 00:47:54;;;;;;;20.92;18.10;;;;;;;;;;2089329;28;20277;-65
2021/09/26 00:48:54;;;;;;;22.23;19.17;;;;;;;;;;2089289;28;20203;-62
2021/09/26 00:49:54;;;;;;;24.33;19.02;;;;;;;;;;2089302;28;20172;-63
2021/09/26 00:50:55;;;;;;;25.40;20.02;;;;;;;;;;2089192;28;20175;-57
2021/09/26 00:51:56;;;;;;;25.98;20.02;;;;;;;;;;2084770;28;20203;-65
2021/09/26 00:52:56;;;;;;;22.92;19.25;;;;;;;;;;2080695;28;20203;-62
2021/09/26 00:53:56;;;;;;;22.75;18.45;;;;;;;;;;2080889;28;20177;-61
2021/09/26 00:54:57;;;;;;;21.30;17.80;;;;;;;;;;2087160;28;20178;-60
2021/09/26 00:55:57;;;;;;;21.55;18.30;;;;;;;;;;2072032;28;20197;-61
2021/09/26 00:56:58;;;;;;;27.20;18.33;;;;;;;;;;2072499;28;20169;-67
2021/09/26 00:57:59;;;;;;;23.52;18.58;;;;;;;;;;2084570;28;20671;-62
2021/09/26 00:58:59;;;;;;;21.45;18.17;;;;;;;;;;2080398;28;20264;-61
2021/09/26 00:59:59;;;;;;;24.73;19.30;;;;;;;;;;2080743;28;20677;-66
2021/09/26 01:01:00;;;;;;;21.42;17.58;;;;;;;;;;2088992;28;20176;-62
2021/09/26 01:02:00;;;;;;;28.70;18.63;;;;;;;;;;2089587;28;20544;-62
2021/09/26 01:03:00;;;;;;;23.23;18.88;;;;;;;;;;2089609;28;20183;-60
2021/09/26 01:04:01;;;;;;;23.30;19.55;;;;;;;;;;2088215;28;20187;-59
2021/09/26 01:05:02;;;;;;;23.23;18.73;;;;;;;;;;2080584;28;20203;-58
2021/09/26 01:06:13;;;;;;;24.48;19.65;;;;;;;;;;2079172;28;20677;-59
2021/09/26 01:07:16;;;;;;;26.52;19.75;;;;;;;;;;2087615;28;20172;-63
2021/09/26 01:08:42;;;;;;;23.85;18.83;;;;;;;;;;2089425;28;20182;-63
2021/09/26 01:09:42;;;;;;;24.42;18.38;;;;;;;;;;2083215;28;20187;-61
2021/09/26 01:10:42;;;;;;;22.92;19.05;;;;;;;;;;2089418;28;20182;-65
2021/09/26 01:11:50;;;;;;;24.42;18.23;;;;;;;;;;2080851;28;20169;-58
2021/09/26 01:12:56;;;;;;;26.13;18.80;;;;;;;;;;2067857;28;20173;-67
2021/09/26 01:14:15;;;;;;;26.45;19.95;;;;;;;;;;2080890;28;20255;-64
2021/09/26 01:15:28;;;;;;;27.35;20.65;;;;;;;;;;2079603;28;20172;-64
2021/09/26 01:16:34;;;;;;;25.40;20.38;;;;;;;;;;2073603;28;20197;-60
2021/09/26 01:17:43;;;;;;;23.65;19.17;;;;;;;;;;2074161;28;20274;-68
2021/09/26 01:18:46;;;;;;;23.90;19.42;;;;;;;;;;2088243;28;20181;-63
2021/09/26 01:20:02;;;;;;;28.00;20.90;;;;;;;;;;2086370;28;20203;-61
2021/09/26 01:21:06;;;;;;;34.78;22.77;;;;;;;;;;2089310;28;20212;-58
2021/09/26 01:22:09;;;;;;;26.77;21.05;;;;;;;;;;2089851;28;20163;-60
2021/09/26 01:23:15;;;;;;;29.85;21.13;;;;;;;;;;2089033;28;20656;-62
2021/09/26 01:24:34;;;;;;;27.63;20.58;;;;;;;;;;2087226;28;20604;-63
2021/09/26 01:25:53;;;;;;;31.40;21.05;;;;;;;;;;2082054;28;20160;-63
2021/09/26 01:26:59;;;;;;;32.92;21.58;;;;;;;;;;2089944;28;20187;-63
2021/09/26 01:28:05;;;;;;;29.08;21.00;;;;;;;;;;2085073;28;20635;-68
2021/09/26 01:29:28;;;;;;;29.63;21.25;;;;;;;;;;2080342;28;20723;-64
2021/09/26 01:30:35;;;;;;;27.98;20.77;;;;;;;;;;2084141;28;20181;-66
2021/09/26 01:31:38;;;;;;;24.67;19.73;;;;;;;;;;2083725;28;20184;-62
2021/09/26 01:32:41;;;;;;;26.50;20.08;;;;;;;;;;2091308;28;20293;-61
2021/09/26 01:33:45;;;;;;;26.65;21.08;;;;;;;;;;2085530;28;20172;-61
2021/09/26 01:34:47;;;;;;;26.95;21.13;;;;;;;;;;2090603;28;20195;-63
2021/09/26 01:36:11;;;;;;;28.70;21.42;;;;;;;;;;2087395;28;20587;-61
2021/09/26 01:37:14;;;;;;;24.30;19.73;;;;;;;;;;2053422;28;20248;-64
2021/09/26 01:38:20;;;;;;;28.95;20.85;;;;;;;;;;2086166;28;20191;-66
2021/09/26 01:39:22;;;;;;;27.00;21.25;;;;;;;;;;2089209;28;20221;-64
2021/09/26 01:40:30;;;;;;;30.05;21.75;;;;;;;;;;2087260;28;20195;-63
2021/09/26 01:41:35;;;;;;;29.33;21.33;;;;;;;;;;2080935;28;20676;-70
2021/09/26 01:42:35;;;;;;;31.55;22.33;;;;;;;;;;2079496;28;20188;-60
2021/09/26 01:43:38;;;;;;;28.33;22.02;;;;;;;;;;2080090;28;20232;-60
2021/09/26 01:44:52;;;;;;;28.80;21.90;;;;;;;;;;2080308;28;20271;-62
2021/09/26 01:45:54;;;;;;;29.25;22.38;;;;;;;;;;2081412;28;20194;-58
2021/09/26 01:46:55;;;;;;;31.00;22.90;;;;;;;;;;2079770;28;20187;-64
2021/09/26 01:48:04;;;;;;;28.33;20.63;;;;;;;;;;2080139;28;20176;-68
2021/09/26 01:49:06;;;;;;;29.08;21.70;;;;;;;;;;2089242;28;20167;-64
2021/09/26 01:50:07;;;;;;;25.65;21.00;;;;;;;;;;2089604;28;20662;-65
2021/09/26 01:51:08;;;;;;;28.35;21.23;;;;;;;;;;2089367;28;20250;-61
2021/09/26 01:52:14;;;;;;;24.92;20.90;;;;;;;;;;2081939;28;20271;-61
2021/09/26 01:53:14;;;;;;;25.08;21.38;;;;;;;;;;2070591;28;20177;-63
2021/09/26 01:54:16;;;;;;;31.17;21.90;;;;;;;;;;2073020;28;20200;-63
2021/09/26 01:55:17;;;;;;;24.35;20.35;;;;;;;;;;2088927;28;20183;-66
2021/09/26 01:56:17;;;;;;;29.65;20.60;;;;;;;;;;2088031;28;20198;-65
2021/09/26 01:57:20;;;;;;;28.15;20.55;;;;;;;;;;2078689;28;20273;-65
2021/09/26 01:58:22;;;;;;;30.73;21.55;;;;;;;;;;2080110;28;20172;-64
2021/09/26 01:59:23;;;;;;;27.30;20.75;;;;;;;;;;2088512;28;20646;-64
2021/09/26 02:00:23;;;;;;;29.33;21.27;;;;;;;;;;2088722;28;20372;-63
2021/09/26 02:01:24;;;;;;;28.23;20.33;;;;;;;;;;2080528;28;20656;-64
2021/09/26 02:02:25;;;;;;;29.30;20.92;;;;;;;;;;2079983;28;20733;-65
2021/09/26 02:03:26;;;;;;;25.80;20.63;;;;;;;;;;2088879;28;20164;-62
2021/09/26 02:04:28;;;;;;;28.15;21.95;;;;;;;;;;2082295;28;20656;-64
2021/09/26 02:05:29;;;;;;;28.15;21.02;;;;;;;;;;2088662;28;20171;-65
2021/09/26 02:06:29;;;;;;;28.90;21.55;;;;;;;;;;2089648;28;20194;-65
2021/09/26 02:07:31;;;;;;;26.83;21.00;;;;;;;;;;2089384;28;20182;-62
2021/09/26 02:08:32;;;;;;;34.92;22.25;;;;;;;;;;2081316;28;20219;-61
2021/09/26 02:09:32;;;;;;;29.83;20.52;;;;;;;;;;2089576;28;20175;-66
2021/09/26 02:10:34;;;;;;;27.55;21.80;;;;;;;;;;2088138;28;20643;-61
2021/09/26 02:11:35;;;;;;;29.52;22.70;;;;;;;;;;2089599;28;20194;-61
2021/09/26 02:12:35;;;;;;;27.75;20.85;;;;;;;;;;2089476;28;20651;-61
2021/09/26 02:13:37;;;;;;;26.58;19.90;;;;;;;;;;2089249;28;20240;-62
2021/09/26 02:14:39;;;;;;;24.30;19.77;;;;;;;;;;2089592;28;20181;-63
2021/09/26 02:15:39;;;;;;;27.95;20.52;;;;;;;;;;2089077;28;20682;-61
2021/09/26 02:16:40;;;;;;;27.77;20.25;;;;;;;;;;2086645;28;20180;-61
2021/09/26 02:17:42;;;;;;;27.88;20.80;;;;;;;;;;2089491;28;20810;-61
2021/09/26 02:18:44;;;;;;;28.65;20.98;;;;;;;;;;2088843;28;20233;-61
2021/09/26 02:19:44;;;;;;;31.30;21.60;;;;;;;;;;2080744;28;20751;-62
2021/09/26 02:20:45;;;;;;;27.20;20.38;;;;;;;;;;2080438;28;20211;-62
2021/09/26 02:21:45;;;;;;;28.95;20.92;;;;;;;;;;2089171;28;20249;-62
2021/09/26 02:22:47;;;;;;;28.70;21.75;;;;;;;;;;2079839;28;20184;-62
2021/09/26 02:23:48;;;;;;;29.38;21.90;;;;;;;;;;2079957;28;20183;-62
2021/09/26 02:24:49;;;;;;;28.92;22.05;;;;;;;;;;2088713;28;20199;-62
2021/09/26 02:25:49;;;;;;;29.38;21.90;;;;;;;;;;2080238;28;20203;-65
2021/09/26 02:26:50;;;;;;;28.60;21.90;;;;;;;;;;2080247;28;20173;-62
2021/09/26 02:27:50;;;;;;;29.73;21.35;;;;;;;;;;2080015;28;20836;-63
2021/09/26 02:28:50;;;;;;;28.80;21.67;;;;;;;;;;2080105;28;20258;-61
2021/09/26 02:29:51;;;;;;;30.98;21.42;;;;;;;;;;2088932;28;20178;-61
2021/09/26 02:30:51;;;;;;;26.98;21.75;;;;;;;;;;2080334;28;20632;-61
2021/09/26 02:31:52;;;;;;;30.23;22.30;;;;;;;;;;2071796;28;20196;-67
2021/09/26 02:32:52;;;;;;;28.67;21.50;;;;;;;;;;2079796;28;20192;-63
2021/09/26 02:33:52;;;;;;;24.75;19.38;;;;;;;;;;2079497;28;20175;-61
2021/09/26 02:34:53;;;;;;;28.90;21.75;;;;;;;;;;2088960;28;20629;-57
2021/09/26 02:35:53;;;;;;;31.90;21.98;;;;;;;;;;2079758;28;20188;-59
2021/09/26 02:36:53;;;;;;;31.23;21.80;;;;;;;;;;2080633;28;20204;-63
2021/09/26 02:37:54;;;;;;;30.98;22.45;;;;;;;;;;2080438;28;20168;-64
2021/09/26 02:38:54;;;;;;;28.05;21.02;;;;;;;;;;2080679;28;20187;-63
2021/09/26 02:39:55;;;;;;;30.55;22.05;;;;;;;;;;2079388;28;20191;-59
2021/09/26 02:41:00;;;;;;;25.48;21.17;;;;;;;;;;2085294;28;20180;-63
2021/09/26 02:42:18;;;;;;;28.98;21.25;;;;;;;;;;2076529;28;20202;-64
2021/09/26 02:43:21;;;;;;;30.08;20.75;;;;;;;;;;2080459;28;20179;-63
2021/09/26 02:44:31;;;;;;;30.27;22.17;;;;;;;;;;2084581;28;20172;-64
2021/09/26 02:45:34;;;;;;;27.88;21.17;;;;;;;;;;2088127;28;20253;-62
2021/09/26 02:46:37;;;;;;;32.42;22.23;;;;;;;;;;2088743;28;20516;-63
2021/09/26 02:47:39;;;;;;;30.05;20.60;;;;;;;;;;2079685;28;20848;-64
2021/09/26 02:48:39;;;;;;;31.48;22.88;;;;;;;;;;2079453;28;20184;-67
2021/09/26 02:49:40;;;;;;;30.20;21.73;;;;;;;;;;2088003;28;20175;-62
2021/09/26 02:50:42;;;;;;;32.90;22.20;;;;;;;;;;2088342;28;20280;-64
2021/09/26 02:51:42;;;;;;;30.30;22.05;;;;;;;;;;2085386;28;20191;-60
2021/09/26 02:52:44;;;;;;;27.60;21.65;;;;;;;;;;2089489;28;20273;-66
2021/09/26 02:53:45;;;;;;;26.35;21.83;;;;;;;;;;2086076;28;20185;-61
2021/09/26 02:54:46;;;;;;;29.75;20.67;;;;;;;;;;2080647;28;20176;-64
2021/09/26 02:55:47;;;;;;;30.38;22.02;;;;;;;;;;2079827;28;20691;-61
2021/09/26 02:56:49;;;;;;;28.98;21.60;;;;;;;;;;2089280;28;20229;-64
2021/09/26 02:57:49;;;;;;;27.52;20.10;;;;;;;;;;2086090;28;20188;-64
2021/09/26 02:58:50;;;;;;;27.60;20.00;;;;;;;;;;2089087;28;20358;-58
2021/09/26 02:59:50;;;;;;;27.90;21.50;;;;;;;;;;2079151;28;20600;-63
2021/09/26 03:00:51;;;;;;;28.35;20.55;;;;;;;;;;2075889;28;20211;-63
2021/09/26 03:01:52;;;;;;;28.58;21.60;;;;;;;;;;2079558;28;20332;-68
2021/09/26 03:02:52;;;;;;;31.20;21.08;;;;;;;;;;2079704;28;20226;-62
2021/09/26 03:03:58;;;;;;;25.20;20.20;;;;;;;;;;2079671;28;20191;-62
2021/09/26 03:04:59;;;;;;;31.30;21.30;;;;;;;;;;2079793;28;20243;-62
2021/09/26 03:05:59;;;;;;;28.20;20.35;;;;;;;;;;2079498;28;20184;-64
2021/09/26 03:06:59;;;;;;;25.30;19.30;;;;;;;;;;2088424;28;20182;-64
2021/09/26 03:08:00;;;;;;;28.92;20.58;;;;;;;;;;2088116;28;20198;-63
2021/09/26 03:09:00;;;;;;;25.25;20.23;;;;;;;;;;2088480;28;20171;-63
2021/09/26 03:10:00;;;;;;;25.52;20.05;;;;;;;;;;2088912;28;20175;-60
2021/09/26 03:11:01;;;;;;;27.75;18.98;;;;;;;;;;2086385;28;20199;-62
2021/09/26 03:12:09;;;;;;;27.85;20.58;;;;;;;;;;2088697;28;20529;-61
2021/09/26 03:13:09;;;;;;;30.52;20.98;;;;;;;;;;2085406;28;20180;-62
2021/09/26 03:14:09;;;;;;;24.02;19.35;;;;;;;;;;2088963;28;20179;-60
2021/09/26 03:15:09;;;;;;;25.42;20.15;;;;;;;;;;2081774;28;20287;-61
2021/09/26 03:16:10;;;;;;;24.98;19.75;;;;;;;;;;2081716;28;20203;-61
2021/09/26 03:17:10;;;;;;;23.73;19.20;;;;;;;;;;2089879;28;20193;-65
2021/09/26 03:18:10;;;;;;;28.27;21.42;;;;;;;;;;2088113;28;20176;-66
2021/09/26 03:19:11;;;;;;;27.35;19.95;;;;;;;;;;2081259;28;20201;-61
2021/09/26 03:20:11;;;;;;;27.90;21.63;;;;;;;;;;2081782;28;20207;-64
2021/09/26 03:21:13;;;;;;;29.63;21.55;;;;;;;;;;2090977;28;20179;-63
2021/09/26 03:22:13;;;;;;;27.63;21.23;;;;;;;;;;2089650;28;20632;-64
2021/09/26 03:23:13;;;;;;;30.20;22.15;;;;;;;;;;2090612;28;20172;-62
2021/09/26 03:24:14;;;;;;;31.27;23.23;;;;;;;;;;2090631;28;20199;-63
2021/09/26 03:25:14;;;;;;;29.13;22.45;;;;;;;;;;2088456;28;20262;-63
2021/09/26 03:26:14;;;;;;;32.65;23.08;;;;;;;;;;2088122;28;20192;-58
2021/09/26 03:27:15;;;;;;;29.33;22.15;;;;;;;;;;2087457;28;20179;-65
2021/09/26 03:28:15;;;;;;;37.25;23.50;;;;;;;;;;2087739;28;20172;-66
2021/09/26 03:29:15;;;;;;;29.50;21.33;;;;;;;;;;2080991;28;20300;-60
2021/09/26 03:30:16;;;;;;;33.38;22.30;;;;;;;;;;2082035;28;20610;-61
2021/09/26 03:31:17;;;;;;;33.42;22.75;;;;;;;;;;2090431;28;20609;-62
2021/09/26 03:32:17;;;;;;;31.75;21.20;;;;;;;;;;2086023;28;20211;-58
2021/09/26 03:33:19;;;;;;;28.40;21.55;;;;;;;;;;2078978;28;20202;-56
2021/09/26 03:34:20;;;;;;;33.55;22.73;;;;;;;;;;2080756;28;20184;-59
2021/09/26 03:35:20;;;;;;;31.75;23.23;;;;;;;;;;2089926;28;20646;-59
2021/09/26 03:36:21;;;;;;;34.97;24.08;;;;;;;;;;2090779;28;20214;-61
2021/09/26 03:37:21;;;;;;;35.70;24.27;;;;;;;;;;2090482;28;20237;-65
2021/09/26 03:38:22;;;;;;;38.13;24.38;;;;;;;;;;2090383;28;20179;-63
2021/09/26 03:39:22;;;;;;;35.22;23.17;;;;;;;;;;2085943;28;20238;-64
2021/09/26 03:40:22;;;;;;;37.42;25.48;;;;;;;;;;2089718;28;20196;-64
2021/09/26 03:41:22;;;;;;;35.88;24.75;;;;;;;;;;2090196;28;20186;-63
2021/09/26 03:42:22;;;;;;;36.70;24.88;;;;;;;;;;2090298;28;20171;-61
2021/09/26 03:43:23;;;;;;;31.02;22.27;;;;;;;;;;2087511;28;20199;-60
2021/09/26 03:44:23;;;;;;;36.58;25.05;;;;;;;;;;2090790;28;20209;-62
2021/09/26 03:45:23;;;;;;;33.20;22.67;;;;;;;;;;2090602;28;20183;-62
2021/09/26 03:46:24;;;;;;;33.85;23.83;;;;;;;;;;2089601;28;20203;-61
2021/09/26 03:47:24;;;;;;;33.08;24.30;;;;;;;;;;2090325;28;20199;-62
2021/09/26 03:48:24;;;;;;;33.53;24.02;;;;;;;;;;2089899;28;20176;-63
2021/09/26 03:49:24;;;;;;;37.22;25.10;;;;;;;;;;2090770;28;20184;-63
2021/09/26 03:50:25;;;;;;;38.17;25.98;;;;;;;;;;2086368;28;20211;-62
2021/09/26 03:51:26;;;;;;;40.88;25.38;;;;;;;;;;2089255;28;20179;-64
2021/09/26 03:52:26;;;;;;;41.60;25.77;;;;;;;;;;2081390;28;20192;-65
2021/09/26 03:53:27;;;;;;;36.35;23.75;;;;;;;;;;2081988;28;20326;-64
2021/09/26 03:54:27;;;;;;;36.20;24.13;;;;;;;;;;2088805;28;20210;-61
2021/09/26 03:55:27;;;;;;;34.55;23.38;;;;;;;;;;2090572;28;20178;-57
2021/09/26 03:56:28;;;;;;;37.97;24.73;;;;;;;;;;2090610;28;20590;-60
2021/09/26 03:57:28;;;;;;;35.58;23.48;;;;;;;;;;2090724;28;20679;-58
2021/09/26 03:58:28;;;;;;;33.75;23.08;;;;;;;;;;2089928;28;20824;-69
2021/09/26 03:59:28;;;;;;;36.00;24.05;;;;;;;;;;2089809;28;20172;-57
2021/09/26 04:00:29;;;;;;;33.30;23.48;;;;;;;;;;2090648;28;20746;-64
2021/09/26 04:01:29;;;;;;;41.55;25.70;;;;;;;;;;2090639;28;20282;-65
2021/09/26 04:02:29;;;;;;;35.80;22.88;;;;;;;;;;2090135;28;20211;-63
2021/09/26 04:03:30;;;;;;;33.22;24.10;;;;;;;;;;2089659;28;20180;-61
2021/09/26 04:04:30;;;;;;;36.20;24.67;;;;;;;;;;2084427;28;20203;-62
2021/09/26 04:05:30;;;;;;;36.38;25.35;;;;;;;;;;2090123;28;20167;-65
2021/09/26 04:06:31;;;;;;;36.30;23.85;;;;;;;;;;2089738;28;20659;-62
2021/09/26 04:07:31;;;;;;;31.52;23.50;;;;;;;;;;2089631;28;20176;-64
2021/09/26 04:08:31;;;;;;;31.98;23.10;;;;;;;;;;2080605;28;20183;-65
2021/09/26 04:09:31;;;;;;;35.65;24.70;;;;;;;;;;2081798;28;20171;-65
2021/09/26 04:10:32;;;;;;;32.85;23.38;;;;;;;;;;2089621;28;20552;-64
2021/09/26 04:11:32;;;;;;;35.03;24.33;;;;;;;;;;2089745;28;20202;-64
2021/09/26 04:12:33;;;;;;;32.97;24.17;;;;;;;;;;2080851;28;20707;-64
2021/09/26 04:13:34;;;;;;;33.38;23.50;;;;;;;;;;2072231;28;20707;-61
2021/09/26 04:14:34;;;;;;;34.95;24.13;;;;;;;;;;2081579;28;20752;-63
2021/09/26 04:15:34;;;;;;;32.58;23.65;;;;;;;;;;2089842;28;20178;-63
2021/09/26 04:16:35;;;;;;;31.40;22.48;;;;;;;;;;2108006;22;20657;-53
2021/09/26 04:17:35;;;;;;;31.83;23.45;;;;;;;;;;2079147;28;20240;-52
2021/09/26 04:18:35;;;;;;;30.08;21.48;;;;;;;;;;2079032;28;20180;-53
2021/09/26 04:19:35;;;;;;;32.10;22.20;;;;;;;;;;2079040;28;20243;-51
2021/09/26 04:20:36;;;;;;;31.05;22.50;;;;;;;;;;2071463;28;20264;-52
2021/09/26 04:21:36;;;;;;;31.10;22.52;;;;;;;;;;2080325;28;20188;-51
2021/09/26 04:22:36;;;;;;;34.05;23.33;;;;;;;;;;2082390;28;20164;-53
2021/09/26 04:23:36;;;;;;;31.77;24.17;;;;;;;;;;2080736;28;20176;-52
2021/09/26 04:24:37;;;;;;;32.63;23.50;;;;;;;;;;2080781;28;20180;-54
2021/09/26 04:25:37;;;;;;;33.05;23.25;;;;;;;;;;2087601;28;20176;-56
2021/09/26 04:26:37;;;;;;;35.78;24.02;;;;;;;;;;2088596;28;20187;-51
2021/09/26 04:27:38;;;;;;;34.90;23.65;;;;;;;;;;2080784;28;20172;-54
2021/09/26 04:28:38;;;;;;;34.38;22.92;;;;;;;;;;2080797;28;20263;-53
2021/09/26 04:29:38;;;;;;;32.05;23.58;;;;;;;;;;2080988;28;20213;-54
2021/09/26 04:30:39;;;;;;;35.58;24.15;;;;;;;;;;2087782;28;20194;-55
2021/09/26 04:31:39;;;;;;;33.22;22.95;;;;;;;;;;2077898;28;20284;-54
2021/09/26 04:32:41;;;;;;;30.90;22.38;;;;;;;;;;2081834;28;20652;-54
2021/09/26 04:33:41;;;;;;;32.80;23.67;;;;;;;;;;2087516;28;20187;-55
2021/09/26 04:34:42;;;;;;;36.28;24.58;;;;;;;;;;2082586;28;20200;-54
2021/09/26 04:35:42;;;;;;;36.45;24.67;;;;;;;;;;2087916;28;20163;-56
2021/09/26 04:36:42;;;;;;;37.53;26.17;;;;;;;;;;2082428;28;20197;-54
2021/09/26 04:37:42;;;;;;;41.20;25.35;;;;;;;;;;2065867;28;20205;-53
2021/09/26 04:38:43;;;;;;;36.92;24.33;;;;;;;;;;2061947;28;20610;-52
2021/09/26 04:39:43;;;;;;;35.50;25.45;;;;;;;;;;2081101;28;20178;-54
2021/09/26 04:40:43;;;;;;;39.15;25.98;;;;;;;;;;2075718;28;20756;-55
2021/09/26 04:41:44;;;;;;;38.20;24.90;;;;;;;;;;2079365;28;20180;-56
2021/09/26 04:42:44;;;;;;;35.53;24.20;;;;;;;;;;2078914;28;20196;-54
2021/09/26 04:43:44;;;;;;;39.22;25.25;;;;;;;;;;2083817;28;20176;-52
2021/09/26 04:44:44;;;;;;;38.70;26.13;;;;;;;;;;2082607;28;20188;-53
2021/09/26 04:45:45;;;;;;;32.95;22.63;;;;;;;;;;2081779;28;20175;-52
2021/09/26 04:46:45;;;;;;;40.13;25.52;;;;;;;;;;2079875;28;20197;-56
2021/09/26 04:47:46;;;;;;;38.60;25.63;;;;;;;;;;2083694;28;20184;-54
2021/09/26 04:48:46;;;;;;;40.58;26.27;;;;;;;;;;2080916;28;20172;-55
2021/09/26 04:49:46;;;;;;;41.53;27.27;;;;;;;;;;2083778;28;20625;-54
2021/09/26 04:50:47;;;;;;;36.47;25.25;;;;;;;;;;2077821;28;20202;-52
2021/09/26 04:51:47;;;;;;;39.85;27.23;;;;;;;;;;2074334;28;20180;-53
2021/09/26 04:52:48;;;;;;;34.60;23.48;;;;;;;;;;2074924;28;20184;-52
2021/09/26 04:53:48;;;;;;;37.33;24.35;;;;;;;;;;2084656;28;20176;-54
2021/09/26 04:54:48;;;;;;;35.22;25.10;;;;;;;;;;2082224;28;20188;-55
2021/09/26 04:55:49;;;;;;;36.80;24.52;;;;;;;;;;2074452;28;20271;-56
2021/09/26 04:56:49;;;;;;;38.45;25.15;;;;;;;;;;2079306;28;20587;-54
2021/09/26 04:57:50;;;;;;;37.22;24.70;;;;;;;;;;2083718;28;20183;-53
2021/09/26 04:58:51;;;;;;;34.42;24.38;;;;;;;;;;2070076;28;20176;-53
2021/09/26 04:59:51;;;;;;;39.25;26.42;;;;;;;;;;2072268;28;20188;-55
2021/09/26 05:00:51;;;;;;;40.55;25.25;;;;;;;;;;2070316;28;20262;-52
2021/09/26 05:01:51;;;;;;;36.70;25.20;;;;;;;;;;2077150;28;20173;-55
2021/09/26 05:02:52;;;;;;;36.83;26.20;;;;;;;;;;2083675;28;20233;-52
2021/09/26 05:03:52;;;;;;;40.30;26.80;;;;;;;;;;2084586;28;20233;-51
2021/09/26 05:04:53;;;;;;;35.72;24.42;;;;;;;;;;2079014;28;20685;-53
2021/09/26 05:05:53;;;;;;;39.75;25.30;;;;;;;;;;2086143;28;20697;-54
2021/09/26 05:06:53;;;;;;;42.95;27.40;;;;;;;;;;2084481;28;20210;-54
2021/09/26 05:07:54;;;;;;;39.28;25.15;;;;;;;;;;2072223;28;20207;-55
2021/09/26 05:08:54;;;;;;;38.58;24.42;;;;;;;;;;2076001;28;20235;-53
2021/09/26 05:09:54;;;;;;;44.75;26.30;;;;;;;;;;2088794;28;20596;-54
2021/09/26 05:10:54;;;;;;;41.92;27.15;;;;;;;;;;2077570;28;20250;-51
2021/09/26 05:11:55;;;;;;;39.78;25.23;;;;;;;;;;2074965;28;20160;-54
2021/09/26 05:12:55;;;;;;;35.42;25.63;;;;;;;;;;2084311;28;20164;-53
2021/09/26 05:13:55;;;;;;;42.78;27.08;;;;;;;;;;2087342;28;20637;-55
2021/09/26 05:15:01;;;;;;;36.50;25.27;;;;;;;;;;2085320;28;20221;-55
2021/09/26 05:16:01;;;;;;;38.50;26.45;;;;;;;;;;2086788;28;20683;-54
2021/09/26 05:17:01;;;;;;;39.97;26.60;;;;;;;;;;2076645;28;20196;-52
2021/09/26 05:18:02;;;;;;;37.75;26.52;;;;;;;;;;2076261;28;20219;-53
2021/09/26 05:19:04;;;;;;;36.50;26.00;;;;;;;;;;2084261;28;20847;-51
2021/09/26 05:20:05;;;;;;;35.72;26.52;;;;;;;;;;2082525;28;20198;-51
2021/09/26 05:21:06;;;;;;;36.95;27.13;;;;;;;;;;2075886;28;20177;-55
2021/09/26 05:22:06;;;;;;;39.47;26.13;;;;;;;;;;2072690;28;20168;-52
2021/09/26 05:23:06;;;;;;;36.45;25.58;;;;;;;;;;2075927;28;20258;-53
2021/09/26 05:24:06;;;;;;;41.13;27.15;;;;;;;;;;2069597;28;20181;-53
2021/09/26 05:25:08;;;;;;;34.30;23.75;;;;;;;;;;2066022;28;20174;-54
2021/09/26 05:26:08;;;;;;;35.28;24.60;;;;;;;;;;2069484;28;20169;-53
2021/09/26 05:27:08;;;;;;;35.75;24.50;;;;;;;;;;2074614;28;20208;-52
2021/09/26 05:28:08;;;;;;;34.05;24.88;;;;;;;;;;2083671;28;20298;-57
2021/09/26 05:29:09;;;;;;;35.45;24.70;;;;;;;;;;2074989;28;20188;-55
2021/09/26 05:30:09;;;;;;;31.73;23.58;;;;;;;;;;2076361;28;20295;-52
2021/09/26 05:31:10;;;;;;;34.85;25.13;;;;;;;;;;2077966;28;20176;-51
2021/09/26 05:32:10;;;;;;;35.15;24.08;;;;;;;;;;2074388;28;20161;-55
2021/09/26 05:33:11;;;;;;;37.40;26.05;;;;;;;;;;2077308;28;20699;-55
2021/09/26 05:34:13;;;;;;;33.90;24.08;;;;;;;;;;2084208;28;20222;-56
2021/09/26 05:35:13;;;;;;;32.72;24.13;;;;;;;;;;2083058;28;20556;-55
2021/09/26 05:36:14;;;;;;;29.40;22.85;;;;;;;;;;2086738;28;20168;-54
2021/09/26 05:37:14;;;;;;;30.25;22.40;;;;;;;;;;2084323;28;20560;-56
2021/09/26 05:38:14;;;;;;;33.40;23.25;;;;;;;;;;2086405;28;20549;-53
2021/09/26 05:39:14;;;;;;;29.70;21.90;;;;;;;;;;2074567;28;20171;-52
2021/09/26 05:40:15;;;;;;;32.53;22.45;;;;;;;;;;2078329;28;20554;-54
2021/09/26 05:41:15;;;;;;;30.38;21.48;;;;;;;;;;2074912;28;20180;-52
2021/09/26 05:42:15;;;;;;;29.02;21.05;;;;;;;;;;2075625;28;20172;-51
2021/09/26 05:43:16;;;;;;;24.80;20.65;;;;;;;;;;2080362;28;20164;-55
2021/09/26 05:44:19;;;;;;;25.52;20.65;;;;;;;;;;2081437;28;20542;-53
2021/09/26 05:45:19;;;;;;;27.77;21.23;;;;;;;;;;2078260;28;20712;-58
2021/09/26 05:46:20;;;;;;;25.35;19.17;;;;;;;;;;2065539;28;20201;-53
2021/09/26 05:47:20;;;;;;;24.85;20.23;;;;;;;;;;2071892;28;20213;-54
2021/09/26 05:48:20;;;;;;;23.15;19.50;;;;;;;;;;2086026;28;20533;-55
2021/09/26 05:49:24;;;;;;;20.75;18.45;;;;;;;;;;2077380;28;20175;-55
2021/09/26 05:50:24;;;;;;;24.38;18.95;;;;;;;;;;2079757;28;20187;-55
2021/09/26 05:51:24;;;;;;;21.50;18.33;;;;;;;;;;2065078;28;20182;-55
2021/09/26 05:52:25;;;;;;;23.38;18.35;;;;;;;;;;2079117;28;20267;-54
2021/09/26 05:53:25;;;;;;;20.35;17.23;;;;;;;;;;2076770;28;20184;-55
2021/09/26 05:54:25;;;;;;;22.67;18.10;;;;;;;;;;2088226;28;20270;-55
2021/09/26 05:55:26;;;;;;;20.63;17.65;;;;;;;;;;2081669;28;20184;-55
2021/09/26 05:56:26;;;;;;;22.10;17.13;;;;;;;;;;2088857;28;20253;-51
2021/09/26 05:57:29;;;;;;;18.70;16.10;;;;;;;;;;2085571;28;20273;-55